createdAt,value
2023-01-17T00:02:25.872Z,86.42
2023-01-17T00:05:12.171Z,86.40
2023-01-17T00:07:58.419Z,86.50
2023-01-17T00:10:28.150Z,86.50
2023-01-17T00:13:02.957Z,86.67
2023-01-17T00:15:31.835Z,86.59
2023-01-17T00:17:59.954Z,86.62
2023-01-17T00:20:49.565Z,86.60
2023-01-17T00:23:42.466Z,86.58
2023-01-17T00:26:16.273Z,86.61
2023-01-17T00:28:44.852Z,86.60
2023-01-17T00:31:15.838Z,86.60
2023-01-17T00:33:43.734Z,86.62
2023-01-17T00:36:11.773Z,86.61
2023-01-17T00:38:40.256Z,86.61
2023-01-17T00:41:12.009Z,86.62
2023-01-17T00:43:58.741Z,86.66
2023-01-17T00:46:45.674Z,86.77
2023-01-17T00:49:32.421Z,86.79
2023-01-17T00:52:19.615Z,86.96
2023-01-17T00:55:08.944Z,86.96
2023-01-17T00:57:55.289Z,87.03
2023-01-17T01:00:41.884Z,87.04
2023-01-17T01:03:29.259Z,87.04
2023-01-17T01:06:16.420Z,87.00
2023-01-17T01:09:03.062Z,87.00
2023-01-17T01:11:49.253Z,86.97
2023-01-17T01:14:35.631Z,87.00
2023-01-17T01:17:22.236Z,86.92
2023-01-17T01:20:08.553Z,86.92
2023-01-17T01:22:54.811Z,86.92
2023-01-17T01:25:41.313Z,86.88
2023-01-17T01:28:32.704Z,86.91
2023-01-17T01:31:24.618Z,86.84
2023-01-17T01:33:53.091Z,86.98
2023-01-17T01:36:21.267Z,87.12
2023-01-17T01:38:49.789Z,87.21
2023-01-17T01:41:17.741Z,87.14
2023-01-17T01:43:54.539Z,87.24
2023-01-17T01:46:41.275Z,87.33
2023-01-17T01:49:19.165Z,87.39
2023-01-17T01:51:59.874Z,87.38
2023-01-17T01:54:39.419Z,87.41
2023-01-17T01:57:12.216Z,87.40
2023-01-17T01:59:48.233Z,87.39
2023-01-17T02:02:16.373Z,87.40
2023-01-17T02:04:44.938Z,87.42
2023-01-17T02:07:24.473Z,87.38
2023-01-17T02:09:53.004Z,87.43
2023-01-17T02:12:21.973Z,87.41
2023-01-17T02:14:49.708Z,87.40
2023-01-17T02:17:23.037Z,87.36
2023-01-17T02:20:48.048Z,87.44
2023-01-17T02:23:56.406Z,87.47
2023-01-17T02:26:59.027Z,87.43
2023-01-17T02:30:18.429Z,87.46
2023-01-17T02:33:10.174Z,87.48
2023-01-17T02:35:46.648Z,87.54
2023-01-17T02:38:31.445Z,87.64
2023-01-17T02:41:07.390Z,87.73
2023-01-17T02:43:37.312Z,87.69
2023-01-17T02:46:05.501Z,87.68
2023-01-17T02:48:36.598Z,87.62
2023-01-17T02:51:21.983Z,87.58
2023-01-17T02:54:06.756Z,87.52
2023-01-17T02:57:19.192Z,87.49
2023-01-17T03:00:09.591Z,87.40
2023-01-17T03:02:54.820Z,87.38
2023-01-17T03:05:51.894Z,87.31
2023-01-17T03:08:21.220Z,87.26
2023-01-17T03:10:49.285Z,87.24
2023-01-17T03:13:17.409Z,87.07
2023-01-17T03:15:45.551Z,86.91
2023-01-17T03:18:15.897Z,86.89
2023-01-17T03:20:44.009Z,86.85
2023-01-17T03:23:11.956Z,86.85
2023-01-17T03:25:39.911Z,86.84
2023-01-17T03:28:07.722Z,86.86
2023-01-17T03:30:40.774Z,86.86
2023-01-17T03:33:08.854Z,86.82
2023-01-17T03:35:36.991Z,86.88
2023-01-17T03:38:04.813Z,86.89
2023-01-17T03:40:32.700Z,86.92
2023-01-17T03:43:00.555Z,86.92
2023-01-17T03:45:28.326Z,86.92
2023-01-17T03:47:57.495Z,86.89
2023-01-17T03:50:26.102Z,86.90
2023-01-17T03:52:53.952Z,86.87
2023-01-17T03:55:21.972Z,86.95
2023-01-17T03:57:50.004Z,86.94
2023-01-17T04:00:18.209Z,86.89
2023-01-17T04:02:46.210Z,86.95
2023-01-17T04:05:14.391Z,86.99
2023-01-17T04:07:42.302Z,87.01
2023-01-17T04:10:11.072Z,87.27
2023-01-17T04:12:39.051Z,87.25
2023-01-17T04:15:07.898Z,87.19
2023-01-17T04:17:35.844Z,87.24
2023-01-17T04:20:04.449Z,87.29
2023-01-17T04:22:32.551Z,87.26
2023-01-17T04:25:00.571Z,87.27
2023-01-17T04:27:28.525Z,87.35
2023-01-17T04:29:56.685Z,87.47
2023-01-17T04:32:24.601Z,87.53
2023-01-17T04:34:52.522Z,87.56
2023-01-17T04:37:20.793Z,87.75
2023-01-17T04:39:48.783Z,87.74
2023-01-17T04:42:16.639Z,87.83
2023-01-17T04:44:44.504Z,87.80
2023-01-17T04:47:14.029Z,88.10
2023-01-17T04:49:44.133Z,87.97
2023-01-17T04:52:12.240Z,88.05
2023-01-17T04:54:41.200Z,88.11
2023-01-17T04:57:10.331Z,88.15
2023-01-17T04:59:38.336Z,88.26
2023-01-17T05:02:06.205Z,88.35
2023-01-17T05:04:33.893Z,88.42
2023-01-17T05:07:01.836Z,88.43
2023-01-17T05:09:29.744Z,88.52
2023-01-17T05:11:58.421Z,88.56
2023-01-17T05:14:26.484Z,88.60
2023-01-17T05:16:58.741Z,88.65
2023-01-17T05:19:29.027Z,88.64
2023-01-17T05:21:58.990Z,88.98
2023-01-17T05:24:27.212Z,88.88
2023-01-17T05:26:58.912Z,88.96
2023-01-17T05:29:30.145Z,89.18
2023-01-17T05:31:58.102Z,89.18
2023-01-17T05:34:25.962Z,89.19
2023-01-17T05:36:54.536Z,89.24
2023-01-17T05:39:22.293Z,89.37
2023-01-17T05:41:50.455Z,89.44
2023-01-17T05:44:18.408Z,89.73
2023-01-17T05:46:46.211Z,89.80
2023-01-17T05:49:14.198Z,89.86
2023-01-17T05:51:42.431Z,89.93
2023-01-17T05:54:10.423Z,89.98
2023-01-17T05:56:38.055Z,90.16
2023-01-17T05:59:06.155Z,90.26
2023-01-17T06:01:33.997Z,90.42
2023-01-17T06:04:01.802Z,90.48
2023-01-17T06:06:29.506Z,90.51
2023-01-17T06:08:57.848Z,90.54
2023-01-17T06:11:26.754Z,90.57
2023-01-17T06:13:54.788Z,90.79
2023-01-17T06:16:22.879Z,91.04
2023-01-17T06:18:50.594Z,91.16
2023-01-17T06:21:19.222Z,91.38
2023-01-17T06:23:47.041Z,91.48
2023-01-17T06:26:14.760Z,91.48
2023-01-17T06:28:42.477Z,91.47
2023-01-17T06:31:10.300Z,91.48
2023-01-17T06:33:38.077Z,91.50
2023-01-17T06:36:06.811Z,91.47
2023-01-17T06:38:34.558Z,91.45
2023-01-17T06:41:05.716Z,91.43
2023-01-17T06:43:34.479Z,91.47
2023-01-17T06:46:02.170Z,91.42
2023-01-17T06:48:30.188Z,91.42
2023-01-17T06:50:58.697Z,91.43
2023-01-17T06:53:26.436Z,91.46
2023-01-17T06:55:57.486Z,91.48
2023-01-17T06:58:25.261Z,91.50
2023-01-17T07:00:53.484Z,91.49
2023-01-17T07:03:25.772Z,91.56
2023-01-17T07:05:53.611Z,91.52
2023-01-17T07:08:21.798Z,91.56
2023-01-17T07:10:49.682Z,91.57
2023-01-17T07:13:17.577Z,91.63
2023-01-17T07:15:45.696Z,91.67
2023-01-17T07:18:14.230Z,91.75
2023-01-17T07:20:43.424Z,91.76
2023-01-17T07:23:12.266Z,91.85
2023-01-17T07:25:40.055Z,91.94
2023-01-17T07:28:08.277Z,92.01
2023-01-17T07:30:36.218Z,92.05
2023-01-17T07:33:05.780Z,92.12
2023-01-17T07:35:33.827Z,92.25
2023-01-17T07:38:01.434Z,92.37
2023-01-17T07:40:29.267Z,92.51
2023-01-17T07:43:01.815Z,92.63
2023-01-17T07:45:29.460Z,92.74
2023-01-17T07:47:57.545Z,92.84
2023-01-17T07:50:25.292Z,92.87
2023-01-17T07:52:53.809Z,92.72
2023-01-17T07:55:21.664Z,92.67
2023-01-17T07:57:50.437Z,92.57
2023-01-17T08:00:19.066Z,92.58
2023-01-17T08:02:46.817Z,92.48
2023-01-17T08:05:15.938Z,92.45
2023-01-17T08:07:43.714Z,92.38
2023-01-17T08:10:16.067Z,92.25
2023-01-17T08:12:49.561Z,92.13
2023-01-17T08:15:18.813Z,92.05
2023-01-17T08:17:51.825Z,91.92
2023-01-17T08:20:20.723Z,91.81
2023-01-17T08:22:48.247Z,91.80
2023-01-17T08:25:15.941Z,91.58
2023-01-17T08:27:44.029Z,91.45
2023-01-17T08:30:12.702Z,91.45
2023-01-17T08:32:42.156Z,91.38
2023-01-17T08:35:10.299Z,91.56
2023-01-17T08:37:39.219Z,91.80
2023-01-17T08:40:10.498Z,91.70
2023-01-17T08:42:40.449Z,91.69
2023-01-17T08:45:10.096Z,91.66
2023-01-17T08:47:38.177Z,91.45
2023-01-17T08:50:06.372Z,91.39
2023-01-17T08:52:35.244Z,91.37
2023-01-17T08:55:05.537Z,91.32
2023-01-17T08:57:33.102Z,91.24
2023-01-17T09:00:01.080Z,91.20
2023-01-17T09:02:29.139Z,91.24
2023-01-17T09:04:56.992Z,91.23
2023-01-17T09:07:26.532Z,91.24
2023-01-17T09:09:54.317Z,91.19
2023-01-17T09:12:21.937Z,91.32
2023-01-17T09:14:49.509Z,91.26
2023-01-17T09:17:17.159Z,91.31
2023-01-17T09:19:44.907Z,91.28
2023-01-17T09:22:12.648Z,91.28
2023-01-17T09:24:42.937Z,91.24
2023-01-17T09:27:11.871Z,91.20
2023-01-17T09:29:39.467Z,90.96
2023-01-17T09:32:06.968Z,90.97
2023-01-17T09:34:36.644Z,91.09
2023-01-17T09:37:04.339Z,91.04
2023-01-17T09:39:31.967Z,90.94
2023-01-17T09:42:08.096Z,90.89
2023-01-17T09:44:48.893Z,91.06
2023-01-17T09:47:21.915Z,91.15
2023-01-17T09:49:49.594Z,91.13
2023-01-17T09:52:23.290Z,91.16
2023-01-17T09:54:51.573Z,91.13
2023-01-17T09:58:00.535Z,91.29
2023-01-17T10:00:36.553Z,91.42
2023-01-17T10:03:30.238Z,91.60
2023-01-17T10:06:32.473Z,91.65
2023-01-17T10:09:20.980Z,91.61
2023-01-17T10:12:15.920Z,91.67
2023-01-17T10:15:15.054Z,91.54
2023-01-17T10:18:05.743Z,91.49
2023-01-17T10:20:55.591Z,91.43
2023-01-17T10:23:56.406Z,91.44
2023-01-17T10:26:26.519Z,91.39
2023-01-17T10:29:00.979Z,91.35
2023-01-17T10:31:36.928Z,91.33
2023-01-17T10:34:18.989Z,91.30
2023-01-17T10:36:52.103Z,91.24
2023-01-17T10:39:25.268Z,91.33
2023-01-17T10:42:18.315Z,91.43
2023-01-17T10:45:17.073Z,91.47
2023-01-17T10:47:49.841Z,91.55
2023-01-17T10:50:19.476Z,91.66
2023-01-17T10:53:03.366Z,91.72
2023-01-17T10:55:45.431Z,91.86
2023-01-17T10:58:13.411Z,91.96
2023-01-17T11:00:58.602Z,92.13
2023-01-17T11:03:28.459Z,92.15
2023-01-17T11:06:24.403Z,92.19
2023-01-17T11:09:01.758Z,92.19
2023-01-17T11:11:32.520Z,92.21
2023-01-17T11:14:07.611Z,92.15
2023-01-17T11:16:36.704Z,92.12
2023-01-17T11:19:15.644Z,92.15
2023-01-17T11:21:58.139Z,92.21
2023-01-17T11:24:40.275Z,92.40
2023-01-17T11:27:13.873Z,92.10
2023-01-17T11:29:41.745Z,92.45
2023-01-17T11:32:30.313Z,92.47
2023-01-17T11:35:25.257Z,92.17
2023-01-17T11:38:20.808Z,92.20
2023-01-17T11:40:50.188Z,91.91
2023-01-17T11:43:25.124Z,90.73
2023-01-17T11:46:17.266Z,89.65
2023-01-17T11:48:55.883Z,89.65
2023-01-17T11:51:35.363Z,88.84
2023-01-17T11:54:20.377Z,89.50
2023-01-17T11:56:50.074Z,88.06
2023-01-17T11:59:38.513Z,86.92
2023-01-17T12:02:39.895Z,86.43
2023-01-17T12:05:47.747Z,86.76
2023-01-17T12:08:51.300Z,86.45
2023-01-17T12:11:44.935Z,86.28
2023-01-17T12:14:30.483Z,84.03
2023-01-17T12:17:07.645Z,83.92
2023-01-17T12:20:03.699Z,82.44
2023-01-17T12:23:18.028Z,83.46
2023-01-17T12:26:17.633Z,83.62
2023-01-17T12:29:07.469Z,83.03
2023-01-17T12:31:49.567Z,83.43
2023-01-17T12:34:22.601Z,83.44
2023-01-17T12:37:04.704Z,82.96
2023-01-17T12:39:49.825Z,78.83
2023-01-17T12:42:25.804Z,79.87
2023-01-17T12:45:09.993Z,79.39
2023-01-17T12:47:42.261Z,78.82
2023-01-17T12:50:36.745Z,79.09
2023-01-17T12:53:18.299Z,79.30
2023-01-17T12:56:15.602Z,79.81
2023-01-17T12:58:48.783Z,80.17
2023-01-17T13:01:31.922Z,80.55
2023-01-17T13:04:10.779Z,80.61
2023-01-17T13:06:46.801Z,80.79
2023-01-17T13:09:19.639Z,79.72
2023-01-17T13:12:04.903Z,79.53
2023-01-17T13:14:32.956Z,79.59
2023-01-17T13:17:20.325Z,78.97
2023-01-17T13:20:11.805Z,77.95
2023-01-17T13:22:40.829Z,78.38
2023-01-17T13:25:41.926Z,78.00
2023-01-17T13:28:34.498Z,76.93
2023-01-17T13:31:32.541Z,76.35
2023-01-17T13:34:29.798Z,72.96
2023-01-17T13:37:30.044Z,75.07
2023-01-17T13:40:36.519Z,74.56
2023-01-17T13:43:13.993Z,74.24
2023-01-17T13:45:45.345Z,73.79
2023-01-17T13:48:21.245Z,74.21
2023-01-17T13:50:58.567Z,74.90
2023-01-17T13:53:36.531Z,74.65
2023-01-17T13:56:31.800Z,75.08
2023-01-17T13:59:03.463Z,75.71
2023-01-17T14:01:38.884Z,76.12
2023-01-17T14:04:12.104Z,76.25
2023-01-17T14:06:49.131Z,75.28
2023-01-17T14:09:27.800Z,75.33
2023-01-17T14:12:13.651Z,75.33
2023-01-17T14:14:46.740Z,75.80
2023-01-17T14:17:20.111Z,75.90
2023-01-17T14:20:12.061Z,76.05
2023-01-17T14:22:51.477Z,75.54
2023-01-17T14:25:25.010Z,75.82
2023-01-17T14:27:58.208Z,76.29
2023-01-17T14:30:36.723Z,76.52
2023-01-17T14:33:12.934Z,76.27
2023-01-17T14:35:51.439Z,76.47
2023-01-17T14:38:28.195Z,76.48
2023-01-17T14:41:17.019Z,76.63
2023-01-17T14:43:48.338Z,76.28
2023-01-17T14:46:30.574Z,76.30
2023-01-17T14:49:09.037Z,76.45
2023-01-17T14:51:38.479Z,76.67
2023-01-17T14:54:17.897Z,76.60
2023-01-17T14:56:47.381Z,76.61
2023-01-17T14:59:22.484Z,76.78
2023-01-17T15:02:06.549Z,76.92
2023-01-17T15:04:29.876Z,76.97
2023-01-17T15:06:59.994Z,77.04
2023-01-17T15:09:32.641Z,77.19
2023-01-17T15:12:02.237Z,77.22
2023-01-17T15:14:37.307Z,77.32
2023-01-17T15:17:24.231Z,77.46
2023-01-17T15:20:01.181Z,77.57
2023-01-17T15:22:29.484Z,77.62
2023-01-17T15:24:59.674Z,77.75
2023-01-17T15:27:27.917Z,77.91
2023-01-17T15:29:58.490Z,77.99
2023-01-17T15:32:28.409Z,78.25
2023-01-17T15:34:56.505Z,78.29
2023-01-17T15:37:34.737Z,78.47
2023-01-17T15:40:12.883Z,78.62
2023-01-17T15:42:43.076Z,78.87
2023-01-17T15:45:22.623Z,79.10
2023-01-17T15:47:50.641Z,79.31
2023-01-17T15:50:25.803Z,79.70
2023-01-17T15:53:00.751Z,79.96
2023-01-17T15:55:37.952Z,80.30
2023-01-17T15:58:28.305Z,80.64
2023-01-17T16:00:58.579Z,80.81
2023-01-17T16:03:30.611Z,80.95
2023-01-17T16:06:02.307Z,81.15
2023-01-17T16:08:39.241Z,81.33
2023-01-17T16:11:10.489Z,81.55
2023-01-17T16:13:43.343Z,81.63
2023-01-17T16:16:17.424Z,81.83
2023-01-17T16:18:47.119Z,81.92
2023-01-17T16:21:26.913Z,82.12
2023-01-17T16:23:56.212Z,82.25
2023-01-17T16:26:30.143Z,82.49
2023-01-17T16:28:58.010Z,82.59
2023-01-17T16:31:27.600Z,82.80
2023-01-17T16:33:56.557Z,82.93
2023-01-17T16:36:24.555Z,82.95
2023-01-17T16:38:52.838Z,83.08
2023-01-17T16:41:21.463Z,83.16
2023-01-17T16:44:05.787Z,83.29
2023-01-17T16:46:47.367Z,83.51
2023-01-17T16:49:30.424Z,83.70
2023-01-17T16:52:05.894Z,83.95
2023-01-17T16:54:46.158Z,84.01
2023-01-17T16:57:17.515Z,84.19
2023-01-17T16:59:50.932Z,84.41
2023-01-17T17:02:18.377Z,84.50
2023-01-17T17:04:46.394Z,84.67
2023-01-17T17:07:14.162Z,84.97
2023-01-17T17:09:42.406Z,85.02
2023-01-17T17:12:10.152Z,85.31
2023-01-17T17:14:39.136Z,85.48
2023-01-17T17:17:07.896Z,85.74
2023-01-17T17:19:35.827Z,85.88
2023-01-17T17:22:05.783Z,86.00
2023-01-17T17:24:33.838Z,86.20
2023-01-17T17:27:03.516Z,86.34
2023-01-17T17:29:31.172Z,86.41
2023-01-17T17:31:59.219Z,86.46
2023-01-17T17:34:27.802Z,86.53
2023-01-17T17:36:55.706Z,86.60
2023-01-17T17:39:23.502Z,86.72
2023-01-17T17:41:52.281Z,86.77
2023-01-17T17:44:19.724Z,86.96
2023-01-17T17:46:50.980Z,86.98
2023-01-17T17:49:20.409Z,87.10
2023-01-17T17:51:47.915Z,87.36
2023-01-17T17:54:18.966Z,87.64
2023-01-17T17:56:47.943Z,87.45
2023-01-17T17:59:20.063Z,87.88
2023-01-17T18:01:48.320Z,87.51
2023-01-17T18:04:16.032Z,87.48
2023-01-17T18:06:50.863Z,87.58
2023-01-17T18:09:19.442Z,87.68
2023-01-17T18:11:47.305Z,87.69
2023-01-17T18:14:16.585Z,87.62
2023-01-17T18:16:44.791Z,87.67
2023-01-17T18:19:19.758Z,87.70
2023-01-17T18:21:49.945Z,87.69
2023-01-17T18:24:21.358Z,87.85
2023-01-17T18:26:56.690Z,87.96
2023-01-17T18:29:26.502Z,88.05
2023-01-17T18:31:55.003Z,88.15
2023-01-17T18:34:28.567Z,88.14
2023-01-17T18:36:57.497Z,88.29
2023-01-17T18:39:28.860Z,88.20
2023-01-17T18:41:57.839Z,88.39
2023-01-17T18:44:29.226Z,88.59
2023-01-17T18:47:01.217Z,88.54
2023-01-17T18:49:32.060Z,88.51
2023-01-17T18:52:00.332Z,88.60
2023-01-17T18:54:28.538Z,88.51
2023-01-17T18:56:56.714Z,88.40
2023-01-17T18:59:27.098Z,88.40
2023-01-17T19:01:59.028Z,88.22
2023-01-17T19:04:31.532Z,88.13
2023-01-17T19:06:59.740Z,88.15
2023-01-17T19:09:27.655Z,88.20
2023-01-17T19:11:56.487Z,88.25
2023-01-17T19:14:31.841Z,88.24
2023-01-17T19:17:01.285Z,88.23
2023-01-17T19:19:29.001Z,88.15
2023-01-17T19:22:09.926Z,88.07
2023-01-17T19:24:38.388Z,88.07
2023-01-17T19:27:08.168Z,88.04
2023-01-17T19:29:36.570Z,88.04
2023-01-17T19:32:18.613Z,87.94
2023-01-17T19:34:50.290Z,87.89
2023-01-17T19:37:17.995Z,87.76
2023-01-17T19:39:46.305Z,87.78
2023-01-17T19:42:15.131Z,87.94
2023-01-17T19:44:45.146Z,87.92
2023-01-17T19:47:16.387Z,87.92
2023-01-17T19:49:44.093Z,88.08
2023-01-17T19:52:12.610Z,88.00
2023-01-17T19:54:41.074Z,88.19
2023-01-17T19:57:11.951Z,88.45
2023-01-17T19:59:39.990Z,88.35
2023-01-17T20:02:09.881Z,88.51
2023-01-17T20:04:52.633Z,88.50
2023-01-17T20:07:24.829Z,88.58
2023-01-17T20:09:55.945Z,88.68
2023-01-17T20:12:23.815Z,88.73
2023-01-17T20:14:53.944Z,88.77
2023-01-17T20:17:21.879Z,88.74
2023-01-17T20:19:51.105Z,88.69
2023-01-17T20:22:20.900Z,88.65
2023-01-17T20:24:49.611Z,88.55
2023-01-17T20:27:18.444Z,88.47
2023-01-17T20:29:50.616Z,88.38
2023-01-17T20:32:18.966Z,88.46
2023-01-17T20:34:47.586Z,88.36
2023-01-17T20:37:15.539Z,88.39
2023-01-17T20:39:46.037Z,88.39
2023-01-17T20:42:13.861Z,88.60
2023-01-17T20:44:41.518Z,88.79
2023-01-17T20:47:08.947Z,88.87
2023-01-17T20:49:36.912Z,89.05
2023-01-17T20:52:06.260Z,88.99
2023-01-17T20:54:37.277Z,88.88
2023-01-17T20:57:04.949Z,88.77
2023-01-17T20:59:32.370Z,88.80
2023-01-17T21:02:00.325Z,88.73
2023-01-17T21:04:28.543Z,88.68
2023-01-17T21:06:57.080Z,88.76
2023-01-17T21:09:24.753Z,88.75
2023-01-17T21:11:53.782Z,88.84
2023-01-17T21:14:21.728Z,88.81
2023-01-17T21:16:51.391Z,88.74
2023-01-17T21:19:20.205Z,88.62
2023-01-17T21:21:49.473Z,88.59
2023-01-17T21:24:18.874Z,88.50
2023-01-17T21:26:49.317Z,88.46
2023-01-17T21:29:18.009Z,88.42
2023-01-17T21:31:45.943Z,88.43
2023-01-17T21:34:17.703Z,88.34
2023-01-17T21:36:45.389Z,88.27
2023-01-17T21:39:17.697Z,88.23
2023-01-17T21:41:49.020Z,88.21
2023-01-17T21:44:22.685Z,88.16
2023-01-17T21:46:56.679Z,88.01
2023-01-17T21:49:24.832Z,88.01
2023-01-17T21:51:52.540Z,87.91
2023-01-17T21:54:44.034Z,87.75
2023-01-17T21:57:33.020Z,87.69
2023-01-17T22:00:00.841Z,87.60
2023-01-17T22:02:31.045Z,87.50
2023-01-17T22:04:58.987Z,87.32
2023-01-17T22:07:26.807Z,87.37
2023-01-17T22:09:56.268Z,87.43
2023-01-17T22:12:24.219Z,87.52
2023-01-17T22:14:53.588Z,87.52
2023-01-17T22:17:22.435Z,87.39
2023-01-17T22:19:50.292Z,87.29
2023-01-17T22:22:18.110Z,87.33
2023-01-17T22:24:46.470Z,87.28
2023-01-17T22:27:14.034Z,87.29
2023-01-17T22:29:42.764Z,87.36
2023-01-17T22:32:10.478Z,87.32
2023-01-17T22:34:38.726Z,87.82
2023-01-17T22:37:09.405Z,88.55
2023-01-17T22:39:40.744Z,89.16
2023-01-17T22:42:08.649Z,89.19
2023-01-17T22:44:36.471Z,88.83
2023-01-17T22:47:05.144Z,88.67
2023-01-17T22:49:32.971Z,88.93
2023-01-17T22:52:00.820Z,88.62
2023-01-17T22:54:28.445Z,88.55
2023-01-17T22:56:56.301Z,88.44
2023-01-17T22:59:24.644Z,88.51
2023-01-17T23:01:53.724Z,88.64
2023-01-17T23:04:21.622Z,88.81
2023-01-17T23:06:49.254Z,88.66
2023-01-17T23:09:17.333Z,88.65
2023-01-17T23:11:51.308Z,88.95
2023-01-17T23:14:22.884Z,88.71
2023-01-17T23:17:19.512Z,88.71
2023-01-17T23:19:52.618Z,88.73
2023-01-17T23:22:23.910Z,88.61
2023-01-17T23:24:58.973Z,88.48
2023-01-17T23:28:01.332Z,88.40
2023-01-17T23:30:36.911Z,88.26
2023-01-17T23:33:11.774Z,88.19
2023-01-17T23:35:42.557Z,88.17
2023-01-17T23:38:33.463Z,88.16
2023-01-17T23:41:25.008Z,88.18
2023-01-17T23:43:55.204Z,88.22
2023-01-17T23:46:24.778Z,88.16
2023-01-17T23:48:52.688Z,88.16
2023-01-17T23:51:20.498Z,88.17
2023-01-17T23:53:48.150Z,88.15
2023-01-17T23:56:22.542Z,88.10
2023-01-17T23:58:51.014Z,88.08
